sensor_id;sensor_type;location;lat;lon;timestamp;P1;durP1;ratioP1;P2;durP2;ratioP2
59970;SDS011;45825;45.434;9.116;2023-12-28T00:00:40;52.00;;;40.10;;
59970;SDS011;45825;45.434;9.116;2023-12-28T00:03:06;48.88;;;39.55;;
59970;SDS011;45825;45.434;9.116;2023-12-28T00:05:31;50.72;;;39.55;;
59970;SDS011;45825;45.434;9.116;2023-12-28T00:07:56;49.40;;;39.90;;
59970;SDS011;45825;45.434;9.116;2023-12-28T00:10:25;47.13;;;39.53;;
59970;SDS011;45825;45.434;9.116;2023-12-28T00:12:52;49.78;;;39.85;;
59970;SDS011;45825;45.434;9.116;2023-12-28T00:15:18;51.30;;;40.35;;
59970;SDS011;45825;45.434;9.116;2023-12-28T00:17:46;48.10;;;39.53;;
59970;SDS011;45825;45.434;9.116;2023-12-28T00:20:12;52.70;;;39.65;;
59970;SDS011;45825;45.434;9.116;2023-12-28T00:22:37;52.88;;;42.10;;
59970;SDS011;45825;45.434;9.116;2023-12-28T00:25:03;48.60;;;39.78;;
59970;SDS011;45825;45.434;9.116;2023-12-28T00:27:29;51.88;;;40.03;;
59970;SDS011;45825;45.434;9.116;2023-12-28T00:29:54;49.88;;;40.72;;
59970;SDS011;45825;45.434;9.116;2023-12-28T00:32:20;52.67;;;41.65;;
59970;SDS011;45825;45.434;9.116;2023-12-28T00:34:45;51.50;;;40.08;;
59970;SDS011;45825;45.434;9.116;2023-12-28T00:37:10;50.70;;;40.78;;
59970;SDS011;45825;45.434;9.116;2023-12-28T00:39:35;45.47;;;38.58;;
59970;SDS011;45825;45.434;9.116;2023-12-28T00:42:01;49.25;;;40.13;;
59970;SDS011;45825;45.434;9.116;2023-12-28T00:44:26;51.92;;;40.55;;
59970;SDS011;45825;45.434;9.116;2023-12-28T00:46:51;50.70;;;40.95;;
59970;SDS011;45825;45.434;9.116;2023-12-28T00:49:17;52.13;;;40.90;;
59970;SDS011;45825;45.434;9.116;2023-12-28T00:51:42;49.38;;;39.95;;
59970;SDS011;45825;45.434;9.116;2023-12-28T00:54:07;53.08;;;39.97;;
59970;SDS011;45825;45.434;9.116;2023-12-28T00:56:33;52.25;;;40.95;;
59970;SDS011;45825;45.434;9.116;2023-12-28T00:58:58;51.47;;;41.60;;
59970;SDS011;45825;45.434;9.116;2023-12-28T01:01:23;51.85;;;40.75;;
59970;SDS011;45825;45.434;9.116;2023-12-28T01:03:49;48.97;;;41.00;;
59970;SDS011;45825;45.434;9.116;2023-12-28T01:06:14;47.85;;;40.15;;
59970;SDS011;45825;45.434;9.116;2023-12-28T01:08:39;49.83;;;41.30;;
59970;SDS011;45825;45.434;9.116;2023-12-28T01:11:04;49.38;;;39.08;;
59970;SDS011;45825;45.434;9.116;2023-12-28T01:13:30;51.35;;;39.90;;
59970;SDS011;45825;45.434;9.116;2023-12-28T01:15:55;51.72;;;40.20;;
59970;SDS011;45825;45.434;9.116;2023-12-28T01:18:21;49.10;;;39.80;;
59970;SDS011;45825;45.434;9.116;2023-12-28T01:20:46;50.22;;;38.50;;
59970;SDS011;45825;45.434;9.116;2023-12-28T01:23:11;52.05;;;39.67;;
59970;SDS011;45825;45.434;9.116;2023-12-28T01:25:37;49.40;;;38.25;;
59970;SDS011;45825;45.434;9.116;2023-12-28T01:28:02;47.65;;;38.90;;
59970;SDS011;45825;45.434;9.116;2023-12-28T01:30:28;42.60;;;36.85;;
59970;SDS011;45825;45.434;9.116;2023-12-28T01:32:53;47.35;;;38.50;;
59970;SDS011;45825;45.434;9.116;2023-12-28T01:35:19;47.28;;;39.85;;
59970;SDS011;45825;45.434;9.116;2023-12-28T01:37:44;47.97;;;39.13;;
59970;SDS011;45825;45.434;9.116;2023-12-28T01:40:10;49.97;;;39.53;;
59970;SDS011;45825;45.434;9.116;2023-12-28T01:42:35;47.83;;;39.72;;
59970;SDS011;45825;45.434;9.116;2023-12-28T01:45:01;50.75;;;41.20;;
59970;SDS011;45825;45.434;9.116;2023-12-28T01:47:26;54.03;;;39.72;;
59970;SDS011;45825;45.434;9.116;2023-12-28T01:49:53;55.00;;;41.10;;
59970;SDS011;45825;45.434;9.116;2023-12-28T01:52:20;49.05;;;38.58;;
59970;SDS011;45825;45.434;9.116;2023-12-28T01:54:45;51.30;;;39.15;;
59970;SDS011;45825;45.434;9.116;2023-12-28T01:57:11;50.05;;;39.30;;
59970;SDS011;45825;45.434;9.116;2023-12-28T01:59:38;48.83;;;38.03;;
59970;SDS011;45825;45.434;9.116;2023-12-28T02:02:04;46.97;;;38.88;;
59970;SDS011;45825;45.434;9.116;2023-12-28T02:04:29;51.40;;;39.25;;
59970;SDS011;45825;45.434;9.116;2023-12-28T02:06:56;48.92;;;38.72;;
59970;SDS011;45825;45.434;9.116;2023-12-28T02:09:22;48.83;;;37.20;;
59970;SDS011;45825;45.434;9.116;2023-12-28T02:11:48;47.70;;;38.72;;
59970;SDS011;45825;45.434;9.116;2023-12-28T02:14:13;46.53;;;36.25;;
59970;SDS011;45825;45.434;9.116;2023-12-28T02:16:40;48.80;;;36.38;;
59970;SDS011;45825;45.434;9.116;2023-12-28T02:19:18;46.88;;;37.00;;
59970;SDS011;45825;45.434;9.116;2023-12-28T02:21:50;46.90;;;36.53;;
59970;SDS011;45825;45.434;9.116;2023-12-28T02:24:16;45.75;;;37.05;;
59970;SDS011;45825;45.434;9.116;2023-12-28T02:26:41;48.75;;;36.67;;
59970;SDS011;45825;45.434;9.116;2023-12-28T02:29:07;46.00;;;38.22;;
59970;SDS011;45825;45.434;9.116;2023-12-28T02:31:35;46.65;;;36.83;;
59970;SDS011;45825;45.434;9.116;2023-12-28T02:34:19;45.85;;;37.55;;
59970;SDS011;45825;45.434;9.116;2023-12-28T02:36:52;50.13;;;37.85;;
59970;SDS011;45825;45.434;9.116;2023-12-28T02:39:20;48.78;;;38.42;;
59970;SDS011;45825;45.434;9.116;2023-12-28T02:41:47;46.65;;;38.97;;
59970;SDS011;45825;45.434;9.116;2023-12-28T02:44:13;50.97;;;39.25;;
59970;SDS011;45825;45.434;9.116;2023-12-28T02:46:38;49.67;;;37.88;;
59970;SDS011;45825;45.434;9.116;2023-12-28T02:49:03;46.97;;;38.70;;
59970;SDS011;45825;45.434;9.116;2023-12-28T02:51:29;48.92;;;38.35;;
59970;SDS011;45825;45.434;9.116;2023-12-28T02:53:54;49.72;;;38.10;;
59970;SDS011;45825;45.434;9.116;2023-12-28T02:56:19;48.83;;;38.28;;
59970;SDS011;45825;45.434;9.116;2023-12-28T02:58:45;49.47;;;38.40;;
59970;SDS011;45825;45.434;9.116;2023-12-28T03:01:10;43.53;;;37.63;;
59970;SDS011;45825;45.434;9.116;2023-12-28T03:03:35;48.47;;;39.78;;
59970;SDS011;45825;45.434;9.116;2023-12-28T03:06:00;50.78;;;38.30;;
59970;SDS011;45825;45.434;9.116;2023-12-28T03:08:26;49.50;;;38.33;;
59970;SDS011;45825;45.434;9.116;2023-12-28T03:10:51;48.83;;;39.13;;
59970;SDS011;45825;45.434;9.116;2023-12-28T03:13:17;48.63;;;39.47;;
59970;SDS011;45825;45.434;9.116;2023-12-28T03:15:43;48.78;;;38.45;;
59970;SDS011;45825;45.434;9.116;2023-12-28T03:18:08;48.42;;;38.38;;
59970;SDS011;45825;45.434;9.116;2023-12-28T03:20:33;51.33;;;39.30;;
59970;SDS011;45825;45.434;9.116;2023-12-28T03:22:59;45.20;;;39.17;;
59970;SDS011;45825;45.434;9.116;2023-12-28T03:25:24;46.13;;;37.15;;
59970;SDS011;45825;45.434;9.116;2023-12-28T03:27:49;48.08;;;38.17;;
59970;SDS011;45825;45.434;9.116;2023-12-28T03:30:15;49.90;;;38.15;;
59970;SDS011;45825;45.434;9.116;2023-12-28T03:32:40;50.08;;;38.13;;
59970;SDS011;45825;45.434;9.116;2023-12-28T03:35:05;47.97;;;37.33;;
59970;SDS011;45825;45.434;9.116;2023-12-28T03:37:32;46.35;;;38.00;;
59970;SDS011;45825;45.434;9.116;2023-12-28T03:39:57;46.08;;;37.75;;
59970;SDS011;45825;45.434;9.116;2023-12-28T03:42:23;44.80;;;37.47;;
59970;SDS011;45825;45.434;9.116;2023-12-28T03:44:48;46.40;;;37.53;;
59970;SDS011;45825;45.434;9.116;2023-12-28T03:47:14;46.97;;;37.33;;
59970;SDS011;45825;45.434;9.116;2023-12-28T03:49:39;46.95;;;37.75;;
59970;SDS011;45825;45.434;9.116;2023-12-28T03:52:04;49.92;;;39.75;;
59970;SDS011;45825;45.434;9.116;2023-12-28T03:54:30;47.92;;;39.03;;
59970;SDS011;45825;45.434;9.116;2023-12-28T03:56:55;51.65;;;39.55;;
59970;SDS011;45825;45.434;9.116;2023-12-28T04:01:50;46.67;;;37.72;;
59970;SDS011;45825;45.434;9.116;2023-12-28T04:04:15;47.10;;;37.75;;
59970;SDS011;45825;45.434;9.116;2023-12-28T04:06:40;44.97;;;37.75;;
59970;SDS011;45825;45.434;9.116;2023-12-28T04:09:08;51.72;;;39.03;;
59970;SDS011;45825;45.434;9.116;2023-12-28T04:11:33;49.28;;;37.53;;
59970;SDS011;45825;45.434;9.116;2023-12-28T04:13:58;51.45;;;39.30;;
59970;SDS011;45825;45.434;9.116;2023-12-28T04:16:24;51.15;;;37.50;;
59970;SDS011;45825;45.434;9.116;2023-12-28T04:18:49;47.58;;;37.58;;
59970;SDS011;45825;45.434;9.116;2023-12-28T04:21:14;46.15;;;37.75;;
59970;SDS011;45825;45.434;9.116;2023-12-28T04:23:40;49.33;;;38.00;;
59970;SDS011;45825;45.434;9.116;2023-12-28T04:26:06;46.45;;;36.20;;
59970;SDS011;45825;45.434;9.116;2023-12-28T04:28:32;48.72;;;37.92;;
59970;SDS011;45825;45.434;9.116;2023-12-28T04:31:04;49.00;;;37.95;;
59970;SDS011;45825;45.434;9.116;2023-12-28T04:33:30;48.92;;;36.58;;
59970;SDS011;45825;45.434;9.116;2023-12-28T04:35:56;46.13;;;37.33;;
59970;SDS011;45825;45.434;9.116;2023-12-28T04:38:21;49.30;;;36.88;;
59970;SDS011;45825;45.434;9.116;2023-12-28T04:40:46;48.08;;;36.67;;
59970;SDS011;45825;45.434;9.116;2023-12-28T04:43:12;47.08;;;38.28;;
59970;SDS011;45825;45.434;9.116;2023-12-28T04:45:37;46.53;;;37.17;;
59970;SDS011;45825;45.434;9.116;2023-12-28T04:48:03;48.70;;;38.10;;
59970;SDS011;45825;45.434;9.116;2023-12-28T04:50:29;45.50;;;36.53;;
59970;SDS011;45825;45.434;9.116;2023-12-28T04:52:54;45.03;;;37.47;;
59970;SDS011;45825;45.434;9.116;2023-12-28T04:55:20;45.63;;;36.60;;
59970;SDS011;45825;45.434;9.116;2023-12-28T04:57:46;48.80;;;38.33;;
59970;SDS011;45825;45.434;9.116;2023-12-28T05:00:11;45.65;;;38.20;;
59970;SDS011;45825;45.434;9.116;2023-12-28T05:02:37;48.03;;;35.53;;
59970;SDS011;45825;45.434;9.116;2023-12-28T05:05:02;44.70;;;36.60;;
59970;SDS011;45825;45.434;9.116;2023-12-28T05:07:28;48.55;;;37.05;;
59970;SDS011;45825;45.434;9.116;2023-12-28T05:09:53;46.30;;;37.83;;
59970;SDS011;45825;45.434;9.116;2023-12-28T05:12:19;43.83;;;36.10;;
59970;SDS011;45825;45.434;9.116;2023-12-28T05:14:44;43.63;;;36.08;;
59970;SDS011;45825;45.434;9.116;2023-12-28T05:17:09;44.88;;;36.00;;
59970;SDS011;45825;45.434;9.116;2023-12-28T05:19:35;46.60;;;35.42;;
59970;SDS011;45825;45.434;9.116;2023-12-28T05:22:00;43.63;;;35.80;;
59970;SDS011;45825;45.434;9.116;2023-12-28T05:24:28;45.05;;;35.33;;
59970;SDS011;45825;45.434;9.116;2023-12-28T05:26:54;44.08;;;36.05;;
59970;SDS011;45825;45.434;9.116;2023-12-28T05:29:19;47.30;;;35.90;;
59970;SDS011;45825;45.434;9.116;2023-12-28T05:31:44;43.00;;;35.35;;
59970;SDS011;45825;45.434;9.116;2023-12-28T05:34:10;44.15;;;34.20;;
59970;SDS011;45825;45.434;9.116;2023-12-28T05:36:35;44.75;;;35.35;;
59970;SDS011;45825;45.434;9.116;2023-12-28T05:39:01;44.47;;;35.63;;
59970;SDS011;45825;45.434;9.116;2023-12-28T05:41:27;42.92;;;35.20;;
59970;SDS011;45825;45.434;9.116;2023-12-28T05:43:52;47.70;;;37.85;;
59970;SDS011;45825;45.434;9.116;2023-12-28T05:46:18;42.00;;;35.10;;
59970;SDS011;45825;45.434;9.116;2023-12-28T05:48:43;43.65;;;35.00;;
59970;SDS011;45825;45.434;9.116;2023-12-28T05:51:11;45.50;;;35.65;;
59970;SDS011;45825;45.434;9.116;2023-12-28T05:53:36;42.60;;;34.90;;
59970;SDS011;45825;45.434;9.116;2023-12-28T05:56:02;44.15;;;34.17;;
59970;SDS011;45825;45.434;9.116;2023-12-28T05:58:28;41.97;;;34.78;;
59970;SDS011;45825;45.434;9.116;2023-12-28T06:00:54;41.58;;;33.83;;
59970;SDS011;45825;45.434;9.116;2023-12-28T06:03:19;43.40;;;34.75;;
59970;SDS011;45825;45.434;9.116;2023-12-28T06:05:45;39.92;;;32.63;;
59970;SDS011;45825;45.434;9.116;2023-12-28T06:08:10;43.38;;;34.28;;
59970;SDS011;45825;45.434;9.116;2023-12-28T06:10:36;43.50;;;33.42;;
59970;SDS011;45825;45.434;9.116;2023-12-28T06:13:01;42.05;;;34.13;;
59970;SDS011;45825;45.434;9.116;2023-12-28T06:15:27;43.65;;;34.17;;
59970;SDS011;45825;45.434;9.116;2023-12-28T06:17:52;41.10;;;34.30;;
59970;SDS011;45825;45.434;9.116;2023-12-28T06:20:17;42.08;;;33.67;;
59970;SDS011;45825;45.434;9.116;2023-12-28T06:22:44;42.58;;;34.60;;
59970;SDS011;45825;45.434;9.116;2023-12-28T06:25:13;43.03;;;34.75;;
59970;SDS011;45825;45.434;9.116;2023-12-28T06:27:39;40.55;;;34.05;;
59970;SDS011;45825;45.434;9.116;2023-12-28T06:30:04;43.70;;;32.80;;
59970;SDS011;45825;45.434;9.116;2023-12-28T06:32:30;43.67;;;33.45;;
59970;SDS011;45825;45.434;9.116;2023-12-28T06:34:55;42.90;;;34.50;;
59970;SDS011;45825;45.434;9.116;2023-12-28T06:37:21;42.20;;;33.03;;
59970;SDS011;45825;45.434;9.116;2023-12-28T06:39:46;40.63;;;32.30;;
59970;SDS011;45825;45.434;9.116;2023-12-28T06:42:11;39.90;;;33.15;;
59970;SDS011;45825;45.434;9.116;2023-12-28T06:44:37;46.47;;;34.35;;
59970;SDS011;45825;45.434;9.116;2023-12-28T06:47:02;44.53;;;34.60;;
59970;SDS011;45825;45.434;9.116;2023-12-28T06:49:28;42.50;;;33.80;;
59970;SDS011;45825;45.434;9.116;2023-12-28T06:51:53;39.28;;;32.92;;
59970;SDS011;45825;45.434;9.116;2023-12-28T06:54:18;42.60;;;33.53;;
59970;SDS011;45825;45.434;9.116;2023-12-28T06:56:44;39.95;;;34.05;;
59970;SDS011;45825;45.434;9.116;2023-12-28T06:59:09;41.92;;;32.50;;
59970;SDS011;45825;45.434;9.116;2023-12-28T07:01:37;39.63;;;33.40;;
59970;SDS011;45825;45.434;9.116;2023-12-28T07:04:03;42.88;;;32.20;;
59970;SDS011;45825;45.434;9.116;2023-12-28T07:06:29;41.03;;;32.80;;
59970;SDS011;45825;45.434;9.116;2023-12-28T07:08:54;42.17;;;32.83;;
59970;SDS011;45825;45.434;9.116;2023-12-28T07:11:20;40.53;;;31.85;;
59970;SDS011;45825;45.434;9.116;2023-12-28T07:13:45;37.47;;;32.00;;
59970;SDS011;45825;45.434;9.116;2023-12-28T07:16:10;40.67;;;32.88;;
59970;SDS011;45825;45.434;9.116;2023-12-28T07:18:36;38.33;;;30.40;;
59970;SDS011;45825;45.434;9.116;2023-12-28T07:21:01;34.50;;;29.30;;
59970;SDS011;45825;45.434;9.116;2023-12-28T07:23:26;36.45;;;29.60;;
59970;SDS011;45825;45.434;9.116;2023-12-28T07:25:53;38.28;;;30.08;;
59970;SDS011;45825;45.434;9.116;2023-12-28T07:28:18;37.83;;;30.08;;
59970;SDS011;45825;45.434;9.116;2023-12-28T07:30:43;37.72;;;30.25;;
59970;SDS011;45825;45.434;9.116;2023-12-28T07:33:09;38.13;;;29.23;;
59970;SDS011;45825;45.434;9.116;2023-12-28T07:35:34;35.60;;;28.23;;
59970;SDS011;45825;45.434;9.116;2023-12-28T07:37:59;32.88;;;28.35;;
59970;SDS011;45825;45.434;9.116;2023-12-28T07:40:25;35.80;;;28.13;;
59970;SDS011;45825;45.434;9.116;2023-12-28T07:42:50;36.70;;;27.85;;
59970;SDS011;45825;45.434;9.116;2023-12-28T07:45:16;33.05;;;26.27;;
59970;SDS011;45825;45.434;9.116;2023-12-28T07:47:42;34.67;;;27.58;;
59970;SDS011;45825;45.434;9.116;2023-12-28T07:50:08;34.30;;;27.30;;
59970;SDS011;45825;45.434;9.116;2023-12-28T07:52:33;33.22;;;26.17;;
59970;SDS011;45825;45.434;9.116;2023-12-28T07:54:58;35.10;;;26.42;;
59970;SDS011;45825;45.434;9.116;2023-12-28T07:57:24;33.42;;;26.33;;
59970;SDS011;45825;45.434;9.116;2023-12-28T07:59:49;30.30;;;25.65;;
59970;SDS011;45825;45.434;9.116;2023-12-28T08:02:15;37.45;;;27.15;;
59970;SDS011;45825;45.434;9.116;2023-12-28T08:04:40;33.08;;;25.75;;
59970;SDS011;45825;45.434;9.116;2023-12-28T08:07:05;33.25;;;26.92;;
59970;SDS011;45825;45.434;9.116;2023-12-28T08:09:32;33.83;;;25.65;;
59970;SDS011;45825;45.434;9.116;2023-12-28T08:11:57;30.00;;;25.23;;
59970;SDS011;45825;45.434;9.116;2023-12-28T08:14:22;31.45;;;25.08;;
59970;SDS011;45825;45.434;9.116;2023-12-28T08:16:48;35.50;;;25.42;;
59970;SDS011;45825;45.434;9.116;2023-12-28T08:19:13;34.92;;;25.02;;
59970;SDS011;45825;45.434;9.116;2023-12-28T08:21:38;31.48;;;25.50;;
59970;SDS011;45825;45.434;9.116;2023-12-28T08:24:04;30.17;;;23.92;;
59970;SDS011;45825;45.434;9.116;2023-12-28T08:26:29;29.77;;;23.90;;
59970;SDS011;45825;45.434;9.116;2023-12-28T08:28:55;33.85;;;24.42;;
59970;SDS011;45825;45.434;9.116;2023-12-28T08:31:21;28.35;;;23.70;;
59970;SDS011;45825;45.434;9.116;2023-12-28T08:33:46;29.88;;;24.13;;
59970;SDS011;45825;45.434;9.116;2023-12-28T08:36:11;29.70;;;23.85;;
59970;SDS011;45825;45.434;9.116;2023-12-28T08:38:37;30.02;;;23.58;;
59970;SDS011;45825;45.434;9.116;2023-12-28T08:41:02;28.83;;;23.65;;
59970;SDS011;45825;45.434;9.116;2023-12-28T08:43:33;29.70;;;23.70;;
59970;SDS011;45825;45.434;9.116;2023-12-28T08:45:58;32.03;;;24.20;;
59970;SDS011;45825;45.434;9.116;2023-12-28T08:48:24;32.75;;;24.17;;
59970;SDS011;45825;45.434;9.116;2023-12-28T08:50:49;32.00;;;24.08;;
59970;SDS011;45825;45.434;9.116;2023-12-28T08:53:14;29.83;;;22.90;;
59970;SDS011;45825;45.434;9.116;2023-12-28T08:55:40;29.35;;;22.67;;
59970;SDS011;45825;45.434;9.116;2023-12-28T08:58:05;28.45;;;22.00;;
59970;SDS011;45825;45.434;9.116;2023-12-28T09:00:30;27.10;;;22.02;;
59970;SDS011;45825;45.434;9.116;2023-12-28T09:02:55;26.17;;;21.55;;
59970;SDS011;45825;45.434;9.116;2023-12-28T09:05:21;27.83;;;21.75;;
59970;SDS011;45825;45.434;9.116;2023-12-28T09:07:46;26.98;;;22.25;;
59970;SDS011;45825;45.434;9.116;2023-12-28T09:10:12;29.30;;;21.15;;
59970;SDS011;45825;45.434;9.116;2023-12-28T09:12:39;29.33;;;21.08;;
59970;SDS011;45825;45.434;9.116;2023-12-28T09:15:05;26.98;;;21.83;;
59970;SDS011;45825;45.434;9.116;2023-12-28T09:17:32;27.35;;;20.92;;
59970;SDS011;45825;45.434;9.116;2023-12-28T09:19:58;29.42;;;20.77;;
59970;SDS011;45825;45.434;9.116;2023-12-28T09:22:23;28.13;;;22.27;;
59970;SDS011;45825;45.434;9.116;2023-12-28T09:24:49;28.38;;;21.85;;
59970;SDS011;45825;45.434;9.116;2023-12-28T09:27:14;30.90;;;23.08;;
59970;SDS011;45825;45.434;9.116;2023-12-28T09:29:40;27.20;;;21.98;;
59970;SDS011;45825;45.434;9.116;2023-12-28T09:32:05;31.10;;;21.98;;
59970;SDS011;45825;45.434;9.116;2023-12-28T09:34:30;29.50;;;22.83;;
59970;SDS011;45825;45.434;9.116;2023-12-28T09:36:56;27.77;;;21.52;;
59970;SDS011;45825;45.434;9.116;2023-12-28T09:39:21;27.20;;;21.33;;
59970;SDS011;45825;45.434;9.116;2023-12-28T09:41:49;28.48;;;21.45;;
59970;SDS011;45825;45.434;9.116;2023-12-28T09:44:20;27.02;;;21.27;;
59970;SDS011;45825;45.434;9.116;2023-12-28T09:46:47;31.80;;;22.40;;
59970;SDS011;45825;45.434;9.116;2023-12-28T09:49:12;25.95;;;20.70;;
59970;SDS011;45825;45.434;9.116;2023-12-28T09:51:38;28.45;;;21.92;;
59970;SDS011;45825;45.434;9.116;2023-12-28T09:54:03;28.25;;;21.35;;
59970;SDS011;45825;45.434;9.116;2023-12-28T09:56:29;31.25;;;21.10;;
59970;SDS011;45825;45.434;9.116;2023-12-28T09:58:56;27.02;;;20.85;;
59970;SDS011;45825;45.434;9.116;2023-12-28T10:01:22;27.27;;;20.90;;
59970;SDS011;45825;45.434;9.116;2023-12-28T10:03:47;30.67;;;22.08;;
59970;SDS011;45825;45.434;9.116;2023-12-28T10:06:13;27.98;;;21.00;;
59970;SDS011;45825;45.434;9.116;2023-12-28T10:08:46;28.75;;;21.30;;
59970;SDS011;45825;45.434;9.116;2023-12-28T10:11:17;27.05;;;20.48;;
59970;SDS011;45825;45.434;9.116;2023-12-28T10:13:44;23.55;;;19.98;;
59970;SDS011;45825;45.434;9.116;2023-12-28T10:16:11;26.40;;;19.90;;
59970;SDS011;45825;45.434;9.116;2023-12-28T10:18:40;24.42;;;19.60;;
59970;SDS011;45825;45.434;9.116;2023-12-28T10:21:09;27.38;;;19.80;;
59970;SDS011;45825;45.434;9.116;2023-12-28T10:23:36;28.48;;;19.77;;
59970;SDS011;45825;45.434;9.116;2023-12-28T10:26:02;28.13;;;20.35;;
59970;SDS011;45825;45.434;9.116;2023-12-28T10:28:31;28.90;;;20.80;;
59970;SDS011;45825;45.434;9.116;2023-12-28T10:30:59;31.75;;;20.83;;
59970;SDS011;45825;45.434;9.116;2023-12-28T10:33:25;33.45;;;19.80;;
59970;SDS011;45825;45.434;9.116;2023-12-28T10:35:50;25.25;;;19.23;;
59970;SDS011;45825;45.434;9.116;2023-12-28T10:38:17;23.20;;;18.48;;
59970;SDS011;45825;45.434;9.116;2023-12-28T10:40:46;23.85;;;18.98;;
59970;SDS011;45825;45.434;9.116;2023-12-28T10:43:16;28.80;;;19.00;;
59970;SDS011;45825;45.434;9.116;2023-12-28T10:45:46;24.55;;;19.08;;
59970;SDS011;45825;45.434;9.116;2023-12-28T10:48:12;27.92;;;20.25;;
59970;SDS011;45825;45.434;9.116;2023-12-28T10:50:56;26.52;;;19.65;;
59970;SDS011;45825;45.434;9.116;2023-12-28T10:58:57;25.63;;;18.60;;
59970;SDS011;45825;45.434;9.116;2023-12-28T11:01:31;30.88;;;19.63;;
59970;SDS011;45825;45.434;9.116;2023-12-28T11:04:01;24.85;;;18.25;;
59970;SDS011;45825;45.434;9.116;2023-12-28T11:06:31;25.40;;;19.02;;
59970;SDS011;45825;45.434;9.116;2023-12-28T11:08:58;24.45;;;19.25;;
59970;SDS011;45825;45.434;9.116;2023-12-28T11:11:25;26.48;;;19.52;;
59970;SDS011;45825;45.434;9.116;2023-12-28T11:13:52;25.42;;;20.27;;
59970;SDS011;45825;45.434;9.116;2023-12-28T11:16:18;24.10;;;19.30;;
59970;SDS011;45825;45.434;9.116;2023-12-28T11:18:45;27.95;;;19.10;;
59970;SDS011;45825;45.434;9.116;2023-12-28T11:21:11;26.85;;;20.40;;
59970;SDS011;45825;45.434;9.116;2023-12-28T11:23:37;27.15;;;20.92;;
59970;SDS011;45825;45.434;9.116;2023-12-28T11:26:03;25.90;;;20.42;;
59970;SDS011;45825;45.434;9.116;2023-12-28T11:28:29;28.58;;;20.55;;
59970;SDS011;45825;45.434;9.116;2023-12-28T11:30:55;24.40;;;19.92;;
59970;SDS011;45825;45.434;9.116;2023-12-28T11:33:21;25.55;;;19.77;;
59970;SDS011;45825;45.434;9.116;2023-12-28T11:35:47;27.25;;;20.60;;
59970;SDS011;45825;45.434;9.116;2023-12-28T11:38:12;30.35;;;21.50;;
59970;SDS011;45825;45.434;9.116;2023-12-28T11:40:42;30.83;;;22.13;;
59970;SDS011;45825;45.434;9.116;2023-12-28T11:43:19;29.65;;;23.25;;
59970;SDS011;45825;45.434;9.116;2023-12-28T11:45:50;29.42;;;22.17;;
59970;SDS011;45825;45.434;9.116;2023-12-28T11:48:23;27.40;;;21.67;;
59970;SDS011;45825;45.434;9.116;2023-12-28T11:50:53;26.40;;;21.15;;
59970;SDS011;45825;45.434;9.116;2023-12-28T11:53:21;26.90;;;20.80;;
59970;SDS011;45825;45.434;9.116;2023-12-28T11:55:47;26.50;;;21.23;;
59970;SDS011;45825;45.434;9.116;2023-12-28T11:58:12;29.83;;;22.23;;
59970;SDS011;45825;45.434;9.116;2023-12-28T12:00:37;29.92;;;21.58;;
59970;SDS011;45825;45.434;9.116;2023-12-28T12:03:04;28.02;;;22.30;;
59970;SDS011;45825;45.434;9.116;2023-12-28T12:05:31;28.73;;;21.58;;
59970;SDS011;45825;45.434;9.116;2023-12-28T12:07:56;27.00;;;21.23;;
59970;SDS011;45825;45.434;9.116;2023-12-28T12:10:22;29.23;;;21.70;;
59970;SDS011;45825;45.434;9.116;2023-12-28T12:12:47;27.90;;;21.40;;
59970;SDS011;45825;45.434;9.116;2023-12-28T12:15:12;27.73;;;21.38;;
59970;SDS011;45825;45.434;9.116;2023-12-28T12:17:38;30.20;;;22.05;;
59970;SDS011;45825;45.434;9.116;2023-12-28T12:20:04;27.50;;;21.27;;
59970;SDS011;45825;45.434;9.116;2023-12-28T12:22:31;29.63;;;21.92;;
59970;SDS011;45825;45.434;9.116;2023-12-28T12:24:56;28.73;;;21.50;;
59970;SDS011;45825;45.434;9.116;2023-12-28T12:27:25;28.40;;;21.60;;
59970;SDS011;45825;45.434;9.116;2023-12-28T12:29:50;28.80;;;20.75;;
59970;SDS011;45825;45.434;9.116;2023-12-28T12:32:15;25.90;;;20.98;;
59970;SDS011;45825;45.434;9.116;2023-12-28T12:34:41;30.45;;;21.77;;
59970;SDS011;45825;45.434;9.116;2023-12-28T12:37:07;27.15;;;21.52;;
59970;SDS011;45825;45.434;9.116;2023-12-28T12:39:32;28.50;;;21.40;;
59970;SDS011;45825;45.434;9.116;2023-12-28T12:41:57;27.50;;;21.80;;
59970;SDS011;45825;45.434;9.116;2023-12-28T12:44:23;28.65;;;22.42;;
59970;SDS011;45825;45.434;9.116;2023-12-28T12:46:55;30.48;;;21.80;;
59970;SDS011;45825;45.434;9.116;2023-12-28T12:49:21;28.45;;;20.95;;
59970;SDS011;45825;45.434;9.116;2023-12-28T12:51:47;28.35;;;22.00;;
59970;SDS011;45825;45.434;9.116;2023-12-28T12:54:13;30.15;;;21.48;;
59970;SDS011;45825;45.434;9.116;2023-12-28T12:56:38;28.50;;;21.98;;
59970;SDS011;45825;45.434;9.116;2023-12-28T12:59:10;29.60;;;21.65;;
59970;SDS011;45825;45.434;9.116;2023-12-28T13:01:40;28.03;;;21.47;;
59970;SDS011;45825;45.434;9.116;2023-12-28T13:04:06;27.10;;;21.38;;
59970;SDS011;45825;45.434;9.116;2023-12-28T13:06:31;27.75;;;21.02;;
59970;SDS011;45825;45.434;9.116;2023-12-28T13:08:57;27.23;;;21.52;;
59970;SDS011;45825;45.434;9.116;2023-12-28T13:11:22;27.10;;;21.77;;
59970;SDS011;45825;45.434;9.116;2023-12-28T13:13:51;31.58;;;22.55;;
59970;SDS011;45825;45.434;9.116;2023-12-28T13:16:17;30.10;;;21.90;;
59970;SDS011;45825;45.434;9.116;2023-12-28T13:18:42;27.90;;;21.70;;
59970;SDS011;45825;45.434;9.116;2023-12-28T13:21:07;27.38;;;21.50;;
59970;SDS011;45825;45.434;9.116;2023-12-28T13:23:33;27.60;;;22.80;;
59970;SDS011;45825;45.434;9.116;2023-12-28T13:25:58;29.60;;;22.73;;
59970;SDS011;45825;45.434;9.116;2023-12-28T13:28:23;30.40;;;23.27;;
59970;SDS011;45825;45.434;9.116;2023-12-28T13:30:49;27.98;;;21.98;;
59970;SDS011;45825;45.434;9.116;2023-12-28T13:33:16;28.35;;;21.45;;
59970;SDS011;45825;45.434;9.116;2023-12-28T13:35:41;30.88;;;21.55;;
59970;SDS011;45825;45.434;9.116;2023-12-28T13:38:07;28.75;;;21.55;;
59970;SDS011;45825;45.434;9.116;2023-12-28T13:40:33;27.48;;;20.60;;
59970;SDS011;45825;45.434;9.116;2023-12-28T13:42:58;28.27;;;21.98;;
59970;SDS011;45825;45.434;9.116;2023-12-28T13:45:23;30.85;;;21.83;;
59970;SDS011;45825;45.434;9.116;2023-12-28T13:47:49;28.38;;;21.45;;
59970;SDS011;45825;45.434;9.116;2023-12-28T13:50:14;29.40;;;21.42;;
59970;SDS011;45825;45.434;9.116;2023-12-28T13:52:40;30.15;;;22.00;;
59970;SDS011;45825;45.434;9.116;2023-12-28T13:55:05;29.30;;;21.70;;
59970;SDS011;45825;45.434;9.116;2023-12-28T13:57:31;26.48;;;19.88;;
59970;SDS011;45825;45.434;9.116;2023-12-28T13:59:57;31.77;;;21.20;;
59970;SDS011;45825;45.434;9.116;2023-12-28T14:02:25;27.92;;;21.33;;
59970;SDS011;45825;45.434;9.116;2023-12-28T14:04:51;25.42;;;20.58;;
59970;SDS011;45825;45.434;9.116;2023-12-28T14:07:16;28.15;;;20.80;;
59970;SDS011;45825;45.434;9.116;2023-12-28T14:09:41;29.05;;;21.55;;
59970;SDS011;45825;45.434;9.116;2023-12-28T14:12:07;30.80;;;21.35;;
59970;SDS011;45825;45.434;9.116;2023-12-28T14:14:32;29.30;;;21.60;;
59970;SDS011;45825;45.434;9.116;2023-12-28T14:16:58;28.67;;;21.55;;
59970;SDS011;45825;45.434;9.116;2023-12-28T14:19:23;25.52;;;20.70;;
59970;SDS011;45825;45.434;9.116;2023-12-28T14:21:48;28.27;;;20.63;;